Time;durP1;ratioP1;P1;durP2;ratioP2;P2;SDS_P1;SDS_P2;PMS_P1;PMS_P2;Temp;Humidity;BMP_temperature;BMP_pressure;BME280_temperature;BME280_humidity;BME280_pressure;Samples;Min_cycle;Max_cycle;Signal;HPM_P1;HPM_P2
2023/09/28 00:02:43;;;;;;;15.43;14.13;;;18.10;99.90;;;;;;5051156;28;20199;-67
2023/09/28 00:05:10;;;;;;;21.33;19.13;;;18.00;99.90;;;;;;5050703;28;20873;-69
2023/09/28 00:07:36;;;;;;;21.10;19.27;;;18.00;99.90;;;;;;5050809;28;20468;-69
2023/09/28 00:10:03;;;;;;;24.43;21.90;;;18.00;99.90;;;;;;5051219;28;20783;-68
2023/09/28 00:12:29;;;;;;;30.37;23.40;;;18.00;99.90;;;;;;5050795;28;20270;-68
2023/09/28 00:14:54;;;;;;;32.93;26.63;;;18.00;99.90;;;;;;5050898;28;20453;-68
2023/09/28 00:17:20;;;;;;;30.50;27.07;;;17.90;99.90;;;;;;5050670;28;20218;-68
2023/09/28 00:19:45;;;;;;;37.07;28.17;;;17.90;99.90;;;;;;5050735;28;20181;-68
2023/09/28 00:22:11;;;;;;;30.93;27.57;;;17.90;99.90;;;;;;5032786;28;20180;-68
2023/09/28 00:24:36;;;;;;;31.33;27.97;;;17.80;99.90;;;;;;5050617;28;20190;-68
2023/09/28 00:27:02;;;;;;;30.17;26.70;;;17.80;99.90;;;;;;5050683;28;20299;-68
2023/09/28 00:29:28;;;;;;;29.03;24.83;;;17.80;99.90;;;;;;5051026;28;20181;-69
2023/09/28 00:31:54;;;;;;;28.27;25.40;;;17.70;99.90;;;;;;5053743;28;20216;-69
2023/09/28 00:34:19;;;;;;;25.37;22.67;;;17.70;99.90;;;;;;5054801;28;20171;-70
2023/09/28 00:36:45;;;;;;;22.53;20.10;;;17.70;99.90;;;;;;5054701;28;20453;-69
2023/09/28 00:39:11;;;;;;;22.00;19.80;;;17.70;99.90;;;;;;5054998;28;20705;-69
2023/09/28 00:41:37;;;;;;;22.23;19.03;;;17.70;99.90;;;;;;5054880;28;20188;-69
2023/09/28 00:44:04;;;;;;;20.13;18.17;;;17.70;99.90;;;;;;5054858;28;20418;-68
2023/09/28 00:46:35;;;;;;;21.00;16.63;;;17.60;99.90;;;;;;5054487;28;20848;-68
2023/09/28 00:49:03;;;;;;;19.13;14.93;;;17.60;99.90;;;;;;5054381;28;20753;-67
2023/09/28 00:51:31;;;;;;;17.73;15.93;;;17.60;99.90;;;;;;5054429;28;20551;-68
2023/09/28 00:53:59;;;;;;;16.83;15.10;;;17.60;99.90;;;;;;5054279;28;20413;-68
2023/09/28 00:56:25;;;;;;;15.47;13.90;;;17.60;99.90;;;;;;5054438;28;20881;-68
2023/09/28 00:58:53;;;;;;;17.83;13.23;;;17.60;99.90;;;;;;5054316;28;20500;-68
2023/09/28 01:01:19;;;;;;;13.87;12.60;;;17.60;99.90;;;;;;5054636;28;20440;-68
2023/09/28 01:03:45;;;;;;;16.60;13.73;;;17.60;99.90;;;;;;5053982;28;20413;-68
2023/09/28 01:06:11;;;;;;;16.57;14.43;;;17.50;99.90;;;;;;5054137;28;20615;-69
2023/09/28 01:08:37;;;;;;;17.87;12.90;;;17.50;99.90;;;;;;5054614;28;20507;-69
2023/09/28 01:11:06;;;;;;;14.37;12.90;;;17.50;99.90;;;;;;5054282;28;20496;-68
2023/09/28 01:13:31;;;;;;;12.93;11.63;;;17.50;99.90;;;;;;5055031;28;20197;-69
2023/09/28 01:15:57;;;;;;;16.70;13.10;;;17.60;99.90;;;;;;5054285;28;20409;-68
2023/09/28 01:18:23;;;;;;;12.03;10.83;;;17.50;99.90;;;;;;5054046;28;20171;-69
2023/09/28 01:20:51;;;;;;;15.67;12.30;;;17.50;99.90;;;;;;5052918;28;20437;-69
2023/09/28 01:23:18;;;;;;;12.87;11.53;;;17.50;99.90;;;;;;5054054;28;20269;-69
2023/09/28 01:25:47;;;;;;;14.57;12.30;;;17.40;99.90;;;;;;5054001;28;20455;-69
2023/09/28 01:28:14;;;;;;;13.23;11.33;;;17.40;99.90;;;;;;5053862;28;20413;-69
2023/09/28 01:30:39;;;;;;;13.83;12.20;;;17.40;99.90;;;;;;5054373;28;20444;-69
2023/09/28 01:33:05;;;;;;;13.80;11.63;;;17.40;99.90;;;;;;5053809;28;20430;-69
2023/09/28 01:35:31;;;;;;;13.43;11.10;;;17.40;99.90;;;;;;5053868;28;20665;-69
2023/09/28 01:37:56;;;;;;;13.70;11.50;;;17.40;99.90;;;;;;5053533;28;20300;-68
2023/09/28 01:40:22;;;;;;;11.50;10.30;;;17.40;99.90;;;;;;5054177;28;20401;-68
2023/09/28 01:42:48;;;;;;;15.70;10.87;;;17.40;99.90;;;;;;5052892;28;20490;-69
2023/09/28 01:45:15;;;;;;;12.20;9.80;;;17.30;99.90;;;;;;5053357;28;20683;-69
2023/09/28 01:47:40;;;;;;;10.23;9.40;;;17.30;99.90;;;;;;5053160;28;20570;-68
2023/09/28 01:50:06;;;;;;;12.93;11.43;;;17.20;99.90;;;;;;5053412;28;20422;-69
2023/09/28 01:52:32;;;;;;;13.70;10.50;;;17.20;99.90;;;;;;5052914;28;20269;-68
2023/09/28 01:54:58;;;;;;;11.37;10.40;;;17.20;99.90;;;;;;5053267;28;20845;-69
2023/09/28 01:57:23;;;;;;;11.63;10.50;;;17.20;99.90;;;;;;5052992;28;20202;-69
2023/09/28 01:59:49;;;;;;;11.93;9.90;;;17.20;99.90;;;;;;5053209;28;20425;-68
2023/09/28 02:02:17;;;;;;;14.60;11.13;;;17.10;99.90;;;;;;5052988;28;20170;-68
2023/09/28 02:04:43;;;;;;;14.87;11.63;;;17.10;99.90;;;;;;5053303;28;20174;-69
2023/09/28 02:07:09;;;;;;;14.40;11.50;;;17.10;99.90;;;;;;5053086;28;20965;-68
2023/09/28 02:09:35;;;;;;;12.17;10.80;;;17.00;99.90;;;;;;5053112;28;20487;-68
2023/09/28 02:12:02;;;;;;;13.43;11.73;;;17.00;99.90;;;;;;5052800;28;20954;-68
2023/09/28 02:14:27;;;;;;;12.90;10.30;;;17.00;99.90;;;;;;5053003;28;20267;-68
2023/09/28 02:16:53;;;;;;;13.70;11.17;;;16.90;99.90;;;;;;5052853;28;20566;-68
2023/09/28 02:19:18;;;;;;;10.63;9.53;;;16.90;99.90;;;;;;5052880;28;20704;-68
2023/09/28 02:21:46;;;;;;;12.60;11.37;;;16.90;99.90;;;;;;5052786;28;20175;-69
2023/09/28 02:24:12;;;;;;;11.47;10.37;;;16.90;99.90;;;;;;5052710;28;20169;-68
2023/09/28 02:26:38;;;;;;;12.30;10.63;;;16.80;99.90;;;;;;5052335;28;20467;-69
2023/09/28 02:29:03;;;;;;;12.70;11.17;;;16.80;99.90;;;;;;5052651;28;20544;-68
2023/09/28 02:31:29;;;;;;;10.37;9.37;;;16.80;99.90;;;;;;5052523;28;20174;-69
2023/09/28 02:33:55;;;;;;;11.57;10.47;;;16.80;99.90;;;;;;5052325;28;20172;-69
2023/09/28 02:36:20;;;;;;;11.73;9.90;;;16.80;99.90;;;;;;5052473;28;20190;-68
2023/09/28 02:38:46;;;;;;;11.80;9.87;;;16.80;99.90;;;;;;5052884;28;20413;-70
2023/09/28 02:41:19;;;;;;;10.10;9.10;;;16.80;99.90;;;;;;5034592;28;20288;-69
2023/09/28 02:43:45;;;;;;;10.67;9.50;;;16.70;99.90;;;;;;5052305;28;20177;-69
2023/09/28 02:46:12;;;;;;;11.77;10.00;;;16.70;99.90;;;;;;5034352;28;20472;-69
2023/09/28 02:48:37;;;;;;;14.13;10.60;;;16.60;99.90;;;;;;5052244;28;20420;-69
2023/09/28 02:51:04;;;;;;;15.43;9.90;;;16.70;99.90;;;;;;5052230;28;20486;-69
2023/09/28 02:53:36;;;;;;;14.83;10.87;;;16.70;99.90;;;;;;5052681;28;20189;-69
2023/09/28 02:56:03;;;;;;;11.97;10.67;;;16.70;99.90;;;;;;5035101;28;20746;-69
2023/09/28 02:58:29;;;;;;;15.37;10.20;;;16.70;99.90;;;;;;5052113;28;20475;-69
2023/09/28 03:00:56;;;;;;;11.17;10.10;;;16.70;99.90;;;;;;5052007;28;20423;-68
2023/09/28 03:03:23;;;;;;;15.17;11.30;;;16.70;99.90;;;;;;5051964;28;20185;-69
2023/09/28 03:05:51;;;;;;;13.20;11.23;;;16.60;99.90;;;;;;5052062;28;20452;-69
2023/09/28 03:08:17;;;;;;;18.23;11.00;;;16.60;99.90;;;;;;5052358;28;20495;-70
2023/09/28 03:10:44;;;;;;;11.23;10.13;;;16.60;99.90;;;;;;5052088;28;20600;-69
2023/09/28 03:13:11;;;;;;;10.67;9.67;;;16.60;99.90;;;;;;5051910;28;20687;-69
2023/09/28 03:15:40;;;;;;;13.30;10.10;;;16.60;99.90;;;;;;5051681;28;20858;-69
2023/09/28 03:18:06;;;;;;;11.43;10.30;;;16.50;99.90;;;;;;5051586;28;20464;-69
2023/09/28 03:20:32;;;;;;;11.23;10.03;;;16.50;99.90;;;;;;5051532;28;20415;-69
2023/09/28 03:22:57;;;;;;;11.47;10.37;;;16.50;99.90;;;;;;5051737;28;20501;-69
2023/09/28 03:25:23;;;;;;;12.73;11.43;;;16.50;99.90;;;;;;5051712;28;20176;-69
2023/09/28 03:27:51;;;;;;;11.50;10.03;;;16.50;99.90;;;;;;5051938;28;20218;-68
2023/09/28 03:30:18;;;;;;;11.20;9.97;;;16.50;99.90;;;;;;5052391;28;20532;-69
2023/09/28 03:32:46;;;;;;;12.40;10.20;;;16.40;99.90;;;;;;5051359;28;20983;-69
2023/09/28 03:35:12;;;;;;;11.37;9.83;;;16.40;99.90;;;;;;5051305;28;20419;-69
2023/09/28 03:37:40;;;;;;;14.67;10.20;;;16.40;99.90;;;;;;5051412;28;20483;-69
2023/09/28 03:40:10;;;;;;;15.30;10.80;;;16.30;99.90;;;;;;5051664;28;20424;-68
2023/09/28 03:42:37;;;;;;;11.60;8.77;;;16.30;99.90;;;;;;5050719;28;20406;-68
2023/09/28 03:45:04;;;;;;;15.37;10.07;;;16.30;99.90;;;;;;5051128;28;20418;-67
2023/09/28 03:47:31;;;;;;;14.03;11.20;;;16.30;99.90;;;;;;5051393;28;20880;-69
2023/09/28 03:49:57;;;;;;;12.50;10.53;;;16.30;99.90;;;;;;5051649;28;20410;-68
2023/09/28 03:52:23;;;;;;;12.87;11.03;;;16.20;99.90;;;;;;5050973;28;20419;-68
2023/09/28 03:54:48;;;;;;;14.73;9.93;;;16.20;99.90;;;;;;5051192;28;20422;-67
2023/09/28 03:57:14;;;;;;;11.60;10.40;;;16.20;99.90;;;;;;5050948;28;20534;-67
2023/09/28 03:59:40;;;;;;;11.93;9.73;;;16.20;99.90;;;;;;5050863;28;20270;-68
2023/09/28 04:02:06;;;;;;;12.00;10.90;;;16.20;99.90;;;;;;5050877;28;20579;-67
2023/09/28 04:04:32;;;;;;;12.17;11.03;;;16.20;99.90;;;;;;5050754;28;20554;-69
2023/09/28 04:06:57;;;;;;;13.93;10.57;;;16.20;99.90;;;;;;5050445;28;20460;-68
2023/09/28 04:09:23;;;;;;;11.27;9.63;;;16.10;99.90;;;;;;5050933;28;20260;-68
2023/09/28 04:11:49;;;;;;;12.63;10.00;;;16.10;99.90;;;;;;5050997;28;20254;-68
2023/09/28 04:14:15;;;;;;;13.30;10.50;;;16.10;99.90;;;;;;5050893;28;20171;-68
2023/09/28 04:16:41;;;;;;;15.83;10.97;;;16.00;99.90;;;;;;5053645;28;20293;-69
2023/09/28 04:19:06;;;;;;;13.00;10.60;;;16.00;99.90;;;;;;5071132;28;20176;-68
2023/09/28 04:21:32;;;;;;;14.57;11.30;;;16.00;99.90;;;;;;5070953;28;20435;-68
2023/09/28 04:23:58;;;;;;;11.50;10.40;;;16.00;99.90;;;;;;5072245;28;20171;-68
2023/09/28 04:26:23;;;;;;;12.40;10.10;;;15.90;99.90;;;;;;5070777;28;20574;-68
2023/09/28 04:28:49;;;;;;;14.37;12.10;;;15.90;99.90;;;;;;5071011;28;20581;-68
2023/09/28 04:31:15;;;;;;;14.77;10.83;;;15.90;99.90;;;;;;5093649;22;20240;-70
2023/09/28 04:33:40;;;;;;;15.00;11.40;;;15.80;99.90;;;;;;5070046;28;20666;-69
2023/09/28 04:36:07;;;;;;;14.43;11.00;;;15.80;99.90;;;;;;5070324;28;20167;-69
2023/09/28 04:38:33;;;;;;;13.07;11.77;;;15.80;99.90;;;;;;5070110;28;20179;-70
2023/09/28 04:41:00;;;;;;;13.03;11.63;;;15.80;99.90;;;;;;5058452;28;20539;-69
2023/09/28 04:43:26;;;;;;;11.70;10.43;;;15.80;99.90;;;;;;5049970;28;20181;-70
2023/09/28 04:45:52;;;;;;;13.43;11.17;;;15.70;99.90;;;;;;5050107;28;20502;-70
2023/09/28 04:48:17;;;;;;;12.20;10.83;;;15.70;99.90;;;;;;5050000;28;20275;-70
2023/09/28 04:50:43;;;;;;;11.87;10.43;;;15.70;99.90;;;;;;5053075;28;20189;-69
2023/09/28 04:53:09;;;;;;;13.03;11.70;;;15.70;99.90;;;;;;5069942;28;20196;-69
2023/09/28 04:55:35;;;;;;;12.67;11.33;;;15.70;99.90;;;;;;5070268;28;20473;-69
2023/09/28 04:58:01;;;;;;;13.00;11.70;;;15.70;99.90;;;;;;5070086;28;20264;-71
2023/09/28 05:00:27;;;;;;;13.50;10.90;;;15.70;99.90;;;;;;5069935;28;20511;-70
2023/09/28 05:02:53;;;;;;;15.47;11.27;;;15.70;99.90;;;;;;5070051;28;20182;-70
2023/09/28 05:05:18;;;;;;;13.63;11.00;;;15.70;99.90;;;;;;5071029;28;20476;-71
2023/09/28 05:07:44;;;;;;;12.80;11.50;;;15.70;99.90;;;;;;5070217;28;20462;-71
2023/09/28 05:10:10;;;;;;;18.77;11.37;;;15.70;99.90;;;;;;5070630;28;20198;-70
2023/09/28 05:12:35;;;;;;;18.20;12.97;;;15.70;99.90;;;;;;5060473;28;20235;-71
2023/09/28 05:15:02;;;;;;;12.00;10.73;;;15.70;99.90;;;;;;5050858;28;20219;-72
2023/09/28 05:17:28;;;;;;;14.47;11.40;;;15.70;99.90;;;;;;5050682;28;20204;-71
2023/09/28 05:19:54;;;;;;;13.63;12.23;;;15.70;99.90;;;;;;5035576;28;20430;-71
2023/09/28 05:22:19;;;;;;;15.33;12.70;;;15.70;99.90;;;;;;5061757;28;20888;-72
2023/09/28 05:24:46;;;;;;;12.77;11.60;;;15.80;99.90;;;;;;5051998;28;20172;-69
2023/09/28 05:27:11;;;;;;;18.63;11.83;;;15.80;99.90;;;;;;5052510;28;20198;-70
2023/09/28 05:29:37;;;;;;;18.10;13.70;;;15.80;99.90;;;;;;5071136;28;20597;-71
2023/09/28 05:32:05;;;;;;;16.27;13.60;;;15.90;99.90;;;;;;5072990;28;20257;-71
2023/09/28 05:34:31;;;;;;;13.27;11.60;;;15.90;99.90;;;;;;5060991;28;20242;-72
2023/09/28 05:36:56;;;;;;;12.93;11.73;;;16.00;99.90;;;;;;5053063;28;20457;-70
2023/09/28 05:39:22;;;;;;;11.40;10.20;;;16.00;99.90;;;;;;5053181;28;20180;-70
2023/09/28 05:41:48;;;;;;;11.20;10.10;;;16.00;99.90;;;;;;5053116;28;20215;-72
2023/09/28 05:44:14;;;;;;;19.37;12.20;;;16.10;99.90;;;;;;5068059;28;20185;-72
2023/09/28 05:46:40;;;;;;;12.97;11.20;;;16.10;99.90;;;;;;5073162;28;20200;-74
2023/09/28 05:49:05;;;;;;;12.47;11.17;;;16.20;99.90;;;;;;5073377;28;20408;-71
2023/09/28 05:51:31;;;;;;;12.87;11.73;;;16.20;99.90;;;;;;5054954;28;20556;-72
2023/09/28 05:53:57;;;;;;;15.10;10.93;;;16.30;99.90;;;;;;5054948;28;20561;-69
2023/09/28 05:56:22;;;;;;;14.13;11.73;;;16.40;99.90;;;;;;5072889;28;20196;-70
2023/09/28 05:58:48;;;;;;;14.40;11.50;;;16.40;99.90;;;;;;5071394;28;20599;-72
2023/09/28 06:01:17;;;;;;;13.63;12.23;;;16.70;99.90;;;;;;5052537;28;20728;-71
2023/09/28 06:03:42;;;;;;;11.53;10.53;;;16.90;99.90;;;;;;5052568;28;20597;-69
2023/09/28 06:06:16;;;;;;;12.97;11.13;;;17.00;99.90;;;;;;5052621;28;20526;-70
2023/09/28 06:08:42;;;;;;;15.17;11.30;;;17.20;99.90;;;;;;5034831;28;20580;-69
2023/09/28 06:11:12;;;;;;;11.50;10.13;;;17.30;99.90;;;;;;5035221;28;20528;-69
2023/09/28 06:13:41;;;;;;;14.00;10.33;;;17.50;99.90;;;;;;5054065;28;20765;-69
2023/09/28 06:16:09;;;;;;;10.73;9.80;;;17.60;99.90;;;;;;5054386;28;20516;-71
2023/09/28 06:18:36;;;;;;;16.20;10.53;;;17.70;99.90;;;;;;5059348;28;20794;-71
2023/09/28 06:21:01;;;;;;;11.77;10.40;;;18.00;99.90;;;;;;5055819;28;20594;-70
2023/09/28 06:23:27;;;;;;;13.10;10.20;;;17.90;99.90;;;;;;5051927;28;20431;-70
2023/09/28 06:25:53;;;;;;;12.63;9.37;;;18.20;99.90;;;;;;5051742;28;20449;-69
2023/09/28 06:28:19;;;;;;;10.60;9.50;;;18.70;99.90;;;;;;5051349;28;20574;-69
2023/09/28 06:30:45;;;;;;;10.37;8.63;;;18.90;99.90;;;;;;5051670;28;20558;-68
2023/09/28 06:33:10;;;;;;;11.60;9.80;;;19.00;99.90;;;;;;5051679;28;20221;-71
2023/09/28 06:35:36;;;;;;;10.20;9.30;;;19.30;99.90;;;;;;5051906;28;20875;-69
2023/09/28 06:38:02;;;;;;;10.80;9.70;;;19.20;99.90;;;;;;5051840;28;20259;-69
2023/09/28 06:40:27;;;;;;;10.47;9.37;;;19.20;99.90;;;;;;5051616;28;20229;-71
2023/09/28 06:42:53;;;;;;;9.03;8.23;;;19.20;99.90;;;;;;5051345;28;20185;-70
2023/09/28 06:45:18;;;;;;;13.00;9.63;;;19.70;99.90;;;;;;5051771;28;20227;-69
2023/09/28 06:47:44;;;;;;;14.07;9.60;;;19.90;99.90;;;;;;5033443;28;20206;-69
2023/09/28 06:50:11;;;;;;;11.80;9.93;;;20.30;99.90;;;;;;5051493;28;20209;-70
2023/09/28 06:52:37;;;;;;;10.70;9.70;;;19.60;99.90;;;;;;5051132;28;20178;-70
2023/09/28 06:55:07;;;;;;;10.70;9.70;;;19.70;99.90;;;;;;5051377;28;20446;-71
2023/09/28 06:57:33;;;;;;;12.77;9.43;;;19.90;99.90;;;;;;5051188;28;20516;-71
2023/09/28 06:59:58;;;;;;;14.23;10.37;;;20.50;99.90;;;;;;5051321;28;20515;-69
2023/09/28 07:02:24;;;;;;;11.20;9.17;;;20.20;99.90;;;;;;5051193;28;20255;-69
2023/09/28 07:04:49;;;;;;;12.33;9.60;;;20.00;99.90;;;;;;5051154;28;20249;-70
2023/09/28 07:07:17;;;;;;;11.97;8.80;;;20.40;99.90;;;;;;5050816;28;20227;-71
2023/09/28 07:09:46;;;;;;;14.33;8.60;;;20.40;99.90;;;;;;5050764;28;20175;-71
2023/09/28 07:12:12;;;;;;;9.30;8.40;;;21.00;99.90;;;;;;5050568;28;20696;-69
2023/09/28 07:14:37;;;;;;;9.53;8.53;;;21.10;99.90;;;;;;5050471;28;20412;-70
2023/09/28 07:17:03;;;;;;;11.53;9.00;;;21.20;99.90;;;;;;5050614;28;20206;-69
2023/09/28 07:19:29;;;;;;;11.80;9.10;;;21.50;99.90;;;;;;5050499;28;20230;-70
2023/09/28 07:21:55;;;;;;;11.27;8.97;;;21.20;99.90;;;;;;5042304;28;20440;-70
2023/09/28 07:24:21;;;;;;;15.77;9.80;;;21.70;99.90;;;;;;5050265;28;20174;-70
2023/09/28 07:26:46;;;;;;;12.30;8.70;;;21.70;99.90;;;;;;5050197;28;20451;-71
2023/09/28 07:29:12;;;;;;;12.47;8.73;;;21.80;99.90;;;;;;5050293;28;20497;-69
2023/09/28 07:31:38;;;;;;;14.23;9.13;;;22.00;99.90;;;;;;5049897;28;20237;-69
2023/09/28 07:34:04;;;;;;;10.43;9.40;;;21.90;99.90;;;;;;5054887;28;20504;-69
2023/09/28 07:36:30;;;;;;;9.20;8.30;;;22.10;99.90;;;;;;5070219;28;20741;-70
2023/09/28 07:38:55;;;;;;;13.17;9.10;;;22.20;99.90;;;;;;5070051;28;20600;-71
2023/09/28 07:41:21;;;;;;;9.00;8.10;;;22.00;99.90;;;;;;5069534;28;20194;-69
2023/09/28 07:43:47;;;;;;;9.23;8.37;;;21.70;99.90;;;;;;5069864;28;20623;-69
2023/09/28 07:46:13;;;;;;;11.10;10.00;;;22.10;99.90;;;;;;5069991;28;20198;-70
2023/09/28 07:48:40;;;;;;;10.40;8.60;;;22.30;99.90;;;;;;5051689;28;20186;-68
2023/09/28 07:51:06;;;;;;;10.90;9.30;;;22.10;99.90;;;;;;5069941;28;20428;-68
2023/09/28 07:53:31;;;;;;;9.77;8.97;;;22.10;99.90;;;;;;5069496;28;20416;-68
2023/09/28 07:55:57;;;;;;;9.50;8.60;;;22.80;99.90;;;;;;5052155;28;20166;-68
2023/09/28 07:58:23;;;;;;;11.00;10.00;;;23.00;99.90;;;;;;5069847;28;20611;-69
2023/09/28 08:00:49;;;;;;;10.43;9.00;;;23.50;99.90;;;;;;5051746;28;20190;-69
2023/09/28 08:03:15;;;;;;;9.00;7.87;;;23.70;99.90;;;;;;5069989;28;20170;-70
2023/09/28 08:05:40;;;;;;;9.43;8.43;;;24.00;99.90;;;;;;5070214;28;20416;-70
2023/09/28 08:08:06;;;;;;;9.53;8.30;;;24.50;99.90;;;;;;5070017;28;20326;-70
2023/09/28 08:10:33;;;;;;;10.43;8.97;;;23.80;99.90;;;;;;5055796;28;20201;-70
2023/09/28 08:13:00;;;;;;;10.07;9.10;;;22.90;99.90;;;;;;5041930;28;20173;-71
2023/09/28 08:15:25;;;;;;;13.40;9.57;;;23.20;99.90;;;;;;5049838;28;20413;-69
2023/09/28 08:17:51;;;;;;;14.80;9.70;;;23.70;99.90;;;;;;5049755;28;20440;-72
2023/09/28 08:20:17;;;;;;;10.70;8.40;;;24.00;99.90;;;;;;5049879;28;20281;-71
2023/09/28 08:22:43;;;;;;;16.30;10.83;;;24.00;99.90;;;;;;5049489;28;20554;-70
2023/09/28 08:25:09;;;;;;;12.40;8.13;;;23.90;99.90;;;;;;5049911;28;20496;-70
2023/09/28 08:27:35;;;;;;;10.40;9.13;;;24.00;99.90;;;;;;5049568;28;20199;-70
2023/09/28 08:30:02;;;;;;;10.33;9.27;;;24.40;99.90;;;;;;5049763;28;20957;-68
2023/09/28 08:32:28;;;;;;;9.60;8.50;;;24.60;99.90;;;;;;5049488;28;20170;-68
2023/09/28 08:34:54;;;;;;;11.00;9.43;;;25.50;99.90;;;;;;5042717;28;20416;-68
2023/09/28 08:37:20;;;;;;;12.33;9.40;;;25.40;99.90;;;;;;5069502;28;20177;-69
2023/09/28 08:39:45;;;;;;;13.23;9.30;;;25.10;99.90;;;;;;5069720;28;20289;-69
2023/09/28 08:42:15;;;;;;;9.77;8.30;;;26.20;99.90;;;;;;5069648;28;20175;-71
2023/09/28 08:44:41;;;;;;;10.77;9.40;;;25.90;99.90;;;;;;5069726;28;20188;-69
2023/09/28 08:47:16;;;;;;;9.60;8.53;;;26.00;99.90;;;;;;5069662;28;21024;-70
2023/09/28 08:49:46;;;;;;;7.80;7.10;;;25.60;99.90;;;;;;5069367;28;20739;-70
2023/09/28 08:52:14;;;;;;;10.37;8.80;;;25.20;99.90;;;;;;5071555;28;20522;-69
2023/09/28 08:54:41;;;;;;;10.00;9.00;;;25.00;99.90;;;;;;5073093;28;20902;-69
2023/09/28 08:57:07;;;;;;;10.87;8.20;;;25.40;99.90;;;;;;5073322;28;20446;-69
2023/09/28 08:59:35;;;;;;;8.50;7.70;;;25.90;99.90;;;;;;5073689;28;20527;-68
2023/09/28 09:02:03;;;;;;;12.37;7.83;;;25.90;99.90;;;;;;5073265;28;20788;-68
2023/09/28 09:04:34;;;;;;;9.23;8.20;;;25.40;99.90;;;;;;5073212;28;20420;-68
2023/09/28 09:07:03;;;;;;;12.40;9.80;;;26.00;99.90;;;;;;5055372;28;20996;-69
2023/09/28 09:09:32;;;;;;;10.40;7.80;;;26.10;99.90;;;;;;5068020;28;20409;-69
2023/09/28 09:11:58;;;;;;;13.73;8.17;;;26.00;99.90;;;;;;5053190;28;20433;-69
2023/09/28 09:14:32;;;;;;;7.90;7.20;;;25.50;99.90;;;;;;5053119;28;20416;-71
2023/09/28 09:16:58;;;;;;;9.20;7.83;;;25.40;99.90;;;;;;5052943;28;20772;-69
2023/09/28 09:19:30;;;;;;;8.73;6.93;;;25.70;99.90;;;;;;5052915;28;20512;-70
2023/09/28 09:21:57;;;;;;;7.70;6.93;;;26.50;99.90;;;;;;5052934;28;20440;-71
2023/09/28 09:24:23;;;;;;;9.70;6.33;;;27.00;99.90;;;;;;5053115;28;20417;-71
2023/09/28 09:26:52;;;;;;;7.50;6.80;;;26.40;99.90;;;;;;5035359;28;20465;-70
2023/09/28 09:29:19;;;;;;;9.97;7.20;;;26.30;99.90;;;;;;5053431;28;20725;-70
2023/09/28 09:31:47;;;;;;;6.90;6.30;;;25.70;99.90;;;;;;5052527;28;20448;-69
2023/09/28 09:34:19;;;;;;;11.27;7.47;;;26.30;99.90;;;;;;5057502;28;20423;-69
2023/09/28 09:36:57;;;;;;;7.83;7.10;;;25.70;99.90;;;;;;5072717;28;20781;-71
2023/09/28 09:39:32;;;;;;;7.47;6.13;;;25.40;99.90;;;;;;5072907;28;20511;-69
2023/09/28 09:41:58;;;;;;;7.60;6.80;;;26.40;99.90;;;;;;5072406;28;20825;-69
2023/09/28 09:44:26;;;;;;;8.60;7.80;;;26.00;99.90;;;;;;5072674;28;20573;-69
2023/09/28 09:46:53;;;;;;;8.50;7.40;;;25.50;99.90;;;;;;5072250;28;20467;-68
2023/09/28 09:49:19;;;;;;;8.10;7.33;;;25.50;99.90;;;;;;5054610;28;20449;-70
2023/09/28 09:51:46;;;;;;;7.40;6.70;;;26.00;99.90;;;;;;5052413;28;20433;-69
2023/09/28 09:54:13;;;;;;;9.07;7.47;;;25.80;99.90;;;;;;5052276;28;20418;-69
2023/09/28 09:56:44;;;;;;;9.13;7.40;;;25.60;99.90;;;;;;5052568;28;20421;-69
2023/09/28 09:59:15;;;;;;;9.47;7.37;;;25.10;99.90;;;;;;5052416;28;20519;-70
2023/09/28 10:01:42;;;;;;;7.60;6.63;;;25.30;99.90;;;;;;5052272;28;20780;-70
2023/09/28 10:04:12;;;;;;;7.00;6.30;;;25.20;99.90;;;;;;5051616;28;20424;-70
2023/09/28 10:06:40;;;;;;;8.40;7.43;;;25.20;99.90;;;;;;5052320;28;20838;-70
2023/09/28 10:09:10;;;;;;;9.00;8.10;;;25.40;99.90;;;;;;5052161;28;20445;-71
2023/09/28 10:11:40;;;;;;;9.37;7.53;;;25.50;99.90;;;;;;5052150;28;20429;-70
2023/09/28 10:14:08;;;;;;;8.07;7.27;;;25.20;99.90;;;;;;5051861;28;20881;-70
2023/09/28 10:16:36;;;;;;;6.70;6.20;;;25.00;99.90;;;;;;5052192;28;20483;-70
2023/09/28 10:19:04;;;;;;;8.20;6.80;;;25.20;99.90;;;;;;5052030;28;20460;-70
2023/09/28 10:21:37;;;;;;;7.90;6.43;;;25.20;99.90;;;;;;5052166;28;20815;-71
2023/09/28 10:24:12;;;;;;;6.67;5.90;;;25.10;99.90;;;;;;5052903;28;20448;-72
2023/09/28 10:26:42;;;;;;;7.00;6.30;;;25.10;99.90;;;;;;5052820;28;20513;-70
2023/09/28 10:29:12;;;;;;;6.43;5.90;;;25.40;99.90;;;;;;5054114;28;20439;-70
2023/09/28 10:31:42;;;;;;;6.40;5.90;;;25.20;99.90;;;;;;5061791;28;20448;-69
2023/09/28 10:34:15;;;;;;;7.83;7.03;;;25.00;99.90;;;;;;5055157;28;20408;-70
2023/09/28 10:36:41;;;;;;;7.00;6.30;;;25.10;99.90;;;;;;5072014;28;20649;-70
2023/09/28 10:39:14;;;;;;;8.87;5.87;;;25.50;99.90;;;;;;5071719;28;20422;-69
2023/09/28 10:41:49;;;;;;;6.17;5.67;;;25.60;99.90;;;;;;5071781;28;20228;-71
2023/09/28 10:44:25;;;;;;;6.60;6.00;;;25.50;99.90;;;;;;5071648;28;20916;-71
2023/09/28 10:46:51;;;;;;;5.77;5.27;;;25.80;99.90;;;;;;5071466;28;20649;-70
2023/09/28 10:49:27;;;;;;;18.23;16.33;;;25.40;99.90;;;;;;5079353;22;20420;-72
2023/09/28 10:51:57;;;;;;;9.20;8.30;;;25.70;99.90;;;;;;5054047;28;20447;-72
2023/09/28 10:54:27;;;;;;;5.47;4.97;;;25.70;99.90;;;;;;5066680;28;20411;-72
2023/09/28 10:56:53;;;;;;;5.87;5.23;;;25.40;99.90;;;;;;5054060;28;20412;-73
2023/09/28 10:59:20;;;;;;;8.10;7.30;;;25.00;99.90;;;;;;5065158;28;20421;-73
2023/09/28 11:01:48;;;;;;;5.77;4.87;;;25.20;99.90;;;;;;5041381;28;20843;-73
2023/09/28 11:04:16;;;;;;;5.33;4.87;;;25.60;99.90;;;;;;5039649;28;20663;-73
2023/09/28 11:06:43;;;;;;;4.67;4.27;;;25.40;99.90;;;;;;5040584;28;20464;-71
2023/09/28 11:09:14;;;;;;;5.53;5.03;;;25.50;99.90;;;;;;5040643;28;20428;-73
2023/09/28 11:11:41;;;;;;;5.70;5.20;;;25.60;99.90;;;;;;5032114;28;20421;-72
2023/09/28 11:14:07;;;;;;;7.10;4.90;;;25.70;99.90;;;;;;5033951;28;21018;-75
2023/09/28 11:16:34;;;;;;;5.63;5.17;;;25.60;99.90;;;;;;5051117;28;20511;-72
2023/09/28 11:19:00;;;;;;;7.00;5.80;;;25.60;99.90;;;;;;5052002;28;20580;-72
2023/09/28 11:21:28;;;;;;;5.10;4.63;;;25.50;99.90;;;;;;5052164;28;20795;-73
2023/09/28 11:23:54;;;;;;;5.30;4.80;;;25.70;99.90;;;;;;5051852;28;20417;-72
2023/09/28 11:26:21;;;;;;;5.00;4.50;;;25.60;99.90;;;;;;5046438;28;20463;-73
2023/09/28 11:28:51;;;;;;;7.27;6.10;;;25.70;99.90;;;;;;5051856;28;20407;-72
2023/09/28 11:31:17;;;;;;;6.70;5.27;;;25.80;99.90;;;;;;5052187;28;20471;-73
2023/09/28 11:33:47;;;;;;;6.27;5.63;;;25.60;99.90;;;;;;5044761;28;20440;-73
2023/09/28 11:36:16;;;;;;;7.67;5.80;;;26.00;99.90;;;;;;5036850;28;20496;-72
2023/09/28 11:38:43;;;;;;;7.17;5.77;;;26.20;99.90;;;;;;5051700;28;20534;-73
2023/09/28 11:41:08;;;;;;;8.23;6.10;;;26.20;99.90;;;;;;5051859;28;20937;-73
2023/09/28 11:43:53;;;;;;;6.97;6.37;;;26.10;99.90;;;;;;5051807;28;20416;-73
2023/09/28 11:46:22;;;;;;;5.17;4.73;;;26.00;99.90;;;;;;5051744;28;20321;-72
2023/09/28 11:49:06;;;;;;;6.60;5.57;;;25.80;99.90;;;;;;5051421;28;20438;-72
2023/09/28 11:51:36;;;;;;;5.43;4.23;;;25.60;99.90;;;;;;5051513;28;20427;-72
2023/09/28 11:54:12;;;;;;;4.80;4.30;;;25.80;99.90;;;;;;5051467;28;20470;-70
2023/09/28 11:56:42;;;;;;;3.50;3.20;;;26.00;99.90;;;;;;5051908;28;20817;-71
2023/09/28 11:59:09;;;;;;;6.53;4.80;;;26.10;99.90;;;;;;5033722;28;20425;-72
2023/09/28 12:01:35;;;;;;;4.87;4.37;;;26.40;99.90;;;;;;5051530;28;20751;-71
2023/09/28 12:04:01;;;;;;;5.47;4.97;;;26.50;99.90;;;;;;5049371;28;20425;-72
2023/09/28 12:06:27;;;;;;;8.57;4.57;;;26.50;99.90;;;;;;5045712;28;21034;-72
2023/09/28 12:08:53;;;;;;;4.73;4.33;;;26.20;99.90;;;;;;5051539;28;20474;-72
2023/09/28 12:11:19;;;;;;;5.50;4.43;;;26.00;99.90;;;;;;5051461;28;20437;-72
2023/09/28 12:13:46;;;;;;;5.53;4.20;;;25.80;99.90;;;;;;5051944;28;20209;-71
2023/09/28 12:16:12;;;;;;;5.77;4.83;;;25.80;99.90;;;;;;5051762;28;20238;-72
2023/09/28 12:18:38;;;;;;;5.50;5.03;;;25.70;99.90;;;;;;5051771;28;20409;-72
2023/09/28 12:21:04;;;;;;;5.50;4.90;;;26.00;99.90;;;;;;5034233;28;20437;-71
2023/09/28 12:23:29;;;;;;;10.40;6.90;;;26.00;99.90;;;;;;5052056;28;20522;-71
2023/09/28 12:25:55;;;;;;;5.60;5.13;;;26.30;99.90;;;;;;5045289;28;20175;-72
2023/09/28 12:28:23;;;;;;;6.83;5.33;;;26.40;99.90;;;;;;5055919;28;20632;-71
2023/09/28 12:30:49;;;;;;;5.37;4.30;;;26.40;99.90;;;;;;5055336;28;20198;-72
2023/09/28 12:33:15;;;;;;;6.70;6.00;;;26.20;99.90;;;;;;5051677;28;20414;-71
2023/09/28 12:35:42;;;;;;;5.73;5.23;;;26.30;99.90;;;;;;5042740;28;20193;-71